Jiangmen, China
Current Conditions -  °F | °C
As of 10:00 PM on Thursday 18 Dec 2014 (Local Time) from VMMC Reporting Station
Light Rain Light Rain  
Wind Chill: 57°   Ceiling: Unl
Heat Index: 57°   Visibility: 6mi
Dew Point: 43°   Wind: 14mph
Humidity: 59%   Direction: 10°N
Pressure: 30.3"   Gusts: NA
Location:  22.58°N, 113.08°E
Report Text: VMMC 181400Z 01012KT 9999 -RA FEW025 14/06 Q1026 NOSIG
Loading
Personal Weather Stations






























Interactive Weather Map New forecast layout! Learn more

10-Day Weather Forecast

Advertisements
Track Severe Weather on mobile